Time;durP1;ratioP1;P1;durP2;ratioP2;P2;SDS_P1;SDS_P2;PMS_P1;PMS_P2;Temp;Humidity;BMP_temperature;BMP_pressure;BME280_temperature;BME280_humidity;BME280_pressure;Samples;Min_cycle;Max_cycle;Signal;HPM_P1;HPM_P2
2022/04/20 00:02:07;;;;;;;22.40;3.40;;;;;;;;;;4970897;28;20058;-67
2022/04/20 00:04:33;;;;;;;21.25;3.83;;;;;;;;;;4980976;28;20045;-68
2022/04/20 00:06:59;;;;;;;22.35;3.50;;;;;;;;;;4985586;28;20377;-67
2022/04/20 00:09:25;;;;;;;16.13;3.53;;;;;;;;;;4978588;28;20778;-67
2022/04/20 00:11:52;;;;;;;18.92;4.25;;;;;;;;;;4982723;28;20041;-68
2022/04/20 00:14:18;;;;;;;14.73;3.15;;;;;;;;;;4973933;28;20023;-67
2022/04/20 00:16:44;;;;;;;10.40;3.72;;;;;;;;;;4969821;28;20144;-67
2022/04/20 00:19:10;;;;;;;21.23;3.30;;;;;;;;;;4986122;28;20426;-67
2022/04/20 00:21:36;;;;;;;15.93;3.60;;;;;;;;;;4990256;28;20541;-67
2022/04/20 00:24:02;;;;;;;19.92;3.53;;;;;;;;;;4981178;28;20023;-67
2022/04/20 00:26:28;;;;;;;14.00;4.00;;;;;;;;;;4972414;28;20035;-68
2022/04/20 00:28:55;;;;;;;11.35;3.67;;;;;;;;;;4969513;28;20037;-67
2022/04/20 00:31:21;;;;;;;21.90;3.50;;;;;;;;;;4970643;28;20027;-67
2022/04/20 00:33:48;;;;;;;15.65;3.15;;;;;;;;;;4975986;28;20046;-67
2022/04/20 00:36:14;;;;;;;15.80;3.42;;;;;;;;;;4983063;28;20022;-67
2022/04/20 00:38:40;;;;;;;20.60;3.60;;;;;;;;;;4990111;28;20499;-67
2022/04/20 00:41:09;;;;;;;20.90;3.90;;;;;;;;;;4990008;28;20079;-67
2022/04/20 00:43:35;;;;;;;19.35;3.50;;;;;;;;;;4986713;28;20236;-67
2022/04/20 00:46:03;;;;;;;20.88;3.35;;;;;;;;;;4968980;28;20027;-67
2022/04/20 00:48:30;;;;;;;17.77;3.67;;;;;;;;;;4970776;28;20049;-68
2022/04/20 00:50:57;;;;;;;15.35;4.10;;;;;;;;;;4988583;28;20058;-67
2022/04/20 00:53:24;;;;;;;14.02;3.70;;;;;;;;;;4989514;28;20034;-67
2022/04/20 00:55:54;;;;;;;19.02;3.67;;;;;;;;;;4960273;28;20072;-67
2022/04/20 00:58:20;;;;;;;14.68;3.25;;;;;;;;;;4969229;28;20031;-68
2022/04/20 01:00:46;;;;;;;12.07;3.60;;;;;;;;;;4969876;28;20050;-67
2022/04/20 01:03:13;;;;;;;19.60;3.60;;;;;;;;;;4988549;28;20050;-67
2022/04/20 01:06:11;;;;;;;25.13;4.03;;;;;;;;;;4981643;28;20484;-67
2022/04/20 01:08:56;;;;;;;14.75;2.88;;;;;;;;;;4970662;28;20049;-67
2022/04/20 01:11:57;;;;;;;30.08;4.40;;;;;;;;;;5049702;28;20049;-67
2022/04/20 01:14:37;;;;;;;15.93;3.20;;;;;;;;;;5069342;28;20072;-67
2022/04/20 01:17:22;;;;;;;17.27;3.92;;;;;;;;;;5069869;28;20544;-67
2022/04/20 01:20:14;;;;;;;17.58;4.18;;;;;;;;;;5073726;28;20094;-68
2022/04/20 01:23:03;;;;;;;22.17;3.70;;;;;;;;;;4981330;28;20042;-67
2022/04/20 01:25:48;;;;;;;22.92;3.58;;;;;;;;;;4974331;28;20645;-67
2022/04/20 01:28:20;;;;;;;17.50;3.80;;;;;;;;;;4989814;28;20061;-67
2022/04/20 01:31:05;;;;;;;21.13;5.53;;;;;;;;;;4951341;28;20034;-67
2022/04/20 01:33:54;;;;;;;15.15;4.57;;;;;;;;;;4973946;28;20062;-68
2022/04/20 01:36:20;;;;;;;21.40;5.53;;;;;;;;;;4974215;28;20591;-67
2022/04/20 01:38:47;;;;;;;15.93;5.43;;;;;;;;;;4973659;28;20472;-67
2022/04/20 01:41:14;;;;;;;19.88;6.07;;;;;;;;;;4973163;28;20034;-68
2022/04/20 01:43:40;;;;;;;16.35;5.32;;;;;;;;;;4973471;28;20035;-67
2022/04/20 01:46:25;;;;;;;19.90;6.22;;;;;;;;;;5003457;28;20451;-67
2022/04/20 01:48:54;;;;;;;21.40;6.85;;;;;;;;;;5012913;28;20044;-67
2022/04/20 01:51:52;;;;;;;20.40;6.57;;;;;;;;;;4954464;28;20059;-68
2022/04/20 01:54:33;;;;;;;21.38;6.20;;;;;;;;;;4954100;29;20440;-67
2022/04/20 01:57:15;;;;;;;22.38;6.38;;;;;;;;;;4954444;29;20054;-68
2022/04/20 02:00:00;;;;;;;17.35;6.70;;;;;;;;;;4974393;28;20143;-67
2022/04/20 02:02:40;;;;;;;18.55;6.70;;;;;;;;;;5012811;28;20092;-67
2022/04/20 02:05:32;;;;;;;17.97;6.23;;;;;;;;;;4993197;28;20042;-67
2022/04/20 02:08:18;;;;;;;18.05;6.50;;;;;;;;;;4976050;28;20047;-67
2022/04/20 02:11:10;;;;;;;18.53;6.20;;;;;;;;;;4992780;28;20416;-67
2022/04/20 02:13:37;;;;;;;17.67;6.38;;;;;;;;;;4976395;28;20297;-68
2022/04/20 02:16:05;;;;;;;21.52;6.82;;;;;;;;;;4976560;28;20086;-68
2022/04/20 02:18:51;;;;;;;17.05;6.65;;;;;;;;;;4991685;28;20495;-68
2022/04/20 02:21:30;;;;;;;16.13;6.80;;;;;;;;;;4976377;28;20069;-68
2022/04/20 02:23:57;;;;;;;14.82;6.93;;;;;;;;;;4975895;28;20457;-67
2022/04/20 02:26:23;;;;;;;17.67;5.82;;;;;;;;;;4976446;28;20027;-67
2022/04/20 02:28:49;;;;;;;17.30;5.97;;;;;;;;;;4936596;28;20062;-67
2022/04/20 02:31:16;;;;;;;12.90;5.03;;;;;;;;;;4932172;29;20032;-67
2022/04/20 02:33:43;;;;;;;16.70;5.65;;;;;;;;;;4915869;29;20479;-67
2022/04/20 02:36:10;;;;;;;13.95;5.78;;;;;;;;;;4931581;29;20059;-67
2022/04/20 02:38:36;;;;;;;15.95;5.20;;;;;;;;;;4930943;29;20097;-67
2022/04/20 02:41:02;;;;;;;16.58;5.32;;;;;;;;;;4931570;29;20043;-67
2022/04/20 02:43:28;;;;;;;18.08;5.38;;;;;;;;;;4975989;28;20053;-68
2022/04/20 02:45:58;;;;;;;20.25;5.75;;;;;;;;;;4990040;28;20022;-67
2022/04/20 02:48:24;;;;;;;14.05;5.57;;;;;;;;;;4981298;28;20062;-67
2022/04/20 02:50:50;;;;;;;13.70;5.38;;;;;;;;;;4973077;28;20035;-67
2022/04/20 02:53:16;;;;;;;20.50;5.95;;;;;;;;;;4970962;28;20038;-67
2022/04/20 02:55:42;;;;;;;18.00;5.80;;;;;;;;;;4970503;28;20484;-67
2022/04/20 02:58:10;;;;;;;13.20;5.20;;;;;;;;;;4971745;28;20361;-67
2022/04/20 03:00:39;;;;;;;15.02;5.00;;;;;;;;;;4988880;28;20038;-67
2022/04/20 03:03:20;;;;;;;13.80;5.82;;;;;;;;;;4987316;28;20030;-67
2022/04/20 03:05:48;;;;;;;17.08;6.07;;;;;;;;;;4970381;28;20114;-67
2022/04/20 03:08:15;;;;;;;17.05;5.75;;;;;;;;;;4972079;28;20038;-67
2022/04/20 03:10:41;;;;;;;14.50;5.05;;;;;;;;;;4990778;28;20454;-67
2022/04/20 03:13:09;;;;;;;13.73;5.28;;;;;;;;;;4989980;28;20076;-68
2022/04/20 03:15:35;;;;;;;13.05;4.80;;;;;;;;;;4990100;28;20034;-67
2022/04/20 03:18:02;;;;;;;16.15;4.95;;;;;;;;;;4989034;28;20023;-67
2022/04/20 03:20:29;;;;;;;14.88;5.38;;;;;;;;;;4977764;28;20031;-67
2022/04/20 03:22:56;;;;;;;21.70;5.32;;;;;;;;;;4970310;28;20040;-68
2022/04/20 03:25:22;;;;;;;13.02;5.03;;;;;;;;;;4983321;28;20027;-67
2022/04/20 03:28:08;;;;;;;15.80;6.30;;;;;;;;;;5029615;28;20371;-67
2022/04/20 03:30:38;;;;;;;20.15;6.78;;;;;;;;;;5014270;28;20121;-67
2022/04/20 03:33:08;;;;;;;16.27;6.38;;;;;;;;;;5014175;28;20049;-68
2022/04/20 03:35:34;;;;;;;15.60;5.53;;;;;;;;;;5014527;28;20034;-67
2022/04/20 03:38:03;;;;;;;16.52;5.65;;;;;;;;;;5029313;28;20033;-67
2022/04/20 03:40:29;;;;;;;15.32;6.25;;;;;;;;;;5015685;28;20128;-67
2022/04/20 03:42:55;;;;;;;13.13;5.03;;;;;;;;;;5029669;28;20087;-67
2022/04/20 03:45:21;;;;;;;16.33;5.85;;;;;;;;;;4994483;28;20034;-68
2022/04/20 03:47:48;;;;;;;18.05;6.15;;;;;;;;;;4994426;28;20038;-67
2022/04/20 03:50:14;;;;;;;22.42;5.85;;;;;;;;;;5010965;28;20150;-67
2022/04/20 03:52:40;;;;;;;17.20;5.95;;;;;;;;;;5010642;28;20040;-68
2022/04/20 03:55:09;;;;;;;11.70;5.90;;;;;;;;;;5014744;28;20467;-67
2022/04/20 03:57:36;;;;;;;13.95;5.50;;;;;;;;;;5010624;28;20053;-67
2022/04/20 04:00:03;;;;;;;21.50;7.18;;;;;;;;;;5014088;28;20033;-67
2022/04/20 04:02:31;;;;;;;19.08;5.95;;;;;;;;;;5013344;28;20525;-67
2022/04/20 04:05:11;;;;;;;20.73;6.90;;;;;;;;;;4999996;28;20045;-67
2022/04/20 04:07:49;;;;;;;15.82;6.20;;;;;;;;;;4989252;28;20034;-67
2022/04/20 04:10:19;;;;;;;18.98;6.20;;;;;;;;;;4989142;28;20472;-67
2022/04/20 04:12:46;;;;;;;14.15;5.53;;;;;;;;;;4986997;28;20038;-67
2022/04/20 04:15:12;;;;;;;24.70;5.70;;;;;;;;;;4988947;28;20056;-67
2022/04/20 04:17:39;;;;;;;15.70;6.30;;;;;;;;;;4985121;28;20030;-67
2022/04/20 04:20:06;;;;;;;13.70;5.78;;;;;;;;;;4970932;28;20437;-67
2022/04/20 04:22:32;;;;;;;19.27;6.07;;;;;;;;;;4988874;28;20486;-68
2022/04/20 04:25:17;;;;;;;14.90;5.45;;;;;;;;;;4990709;28;20498;-67
2022/04/20 04:27:44;;;;;;;19.65;5.93;;;;;;;;;;4988351;28;20037;-67
2022/04/20 04:30:10;;;;;;;16.45;6.53;;;;;;;;;;4984106;28;20035;-67
2022/04/20 04:32:48;;;;;;;18.77;7.05;;;;;;;;;;4987930;28;20038;-67
2022/04/20 04:35:14;;;;;;;23.05;7.13;;;;;;;;;;4988704;28;20176;-68
2022/04/20 04:37:40;;;;;;;22.23;8.43;;;;;;;;;;4987749;28;20034;-68
2022/04/20 04:40:10;;;;;;;19.27;6.50;;;;;;;;;;4988728;28;20385;-68
2022/04/20 04:42:36;;;;;;;21.30;7.40;;;;;;;;;;4986862;28;20125;-67
2022/04/20 04:50:41;;;;;;;23.60;8.25;;;;;;;;;;4986603;28;20392;-67
2022/04/20 04:53:08;;;;;;;27.13;8.93;;;;;;;;;;4979736;28;20099;-67
2022/04/20 04:55:34;;;;;;;25.63;9.02;;;;;;;;;;4983738;28;20026;-67
2022/04/20 04:58:00;;;;;;;26.10;8.75;;;;;;;;;;5002501;28;20042;-67
2022/04/20 05:00:27;;;;;;;34.45;10.05;;;;;;;;;;4991169;28;20018;-67
2022/04/20 05:03:05;;;;;;;30.80;9.77;;;;;;;;;;4990770;28;20041;-67
2022/04/20 05:05:31;;;;;;;26.17;9.98;;;;;;;;;;4991897;28;20026;-68
2022/04/20 05:07:58;;;;;;;30.63;9.65;;;;;;;;;;4988759;28;20483;-68
2022/04/20 05:10:25;;;;;;;21.50;10.27;;;;;;;;;;4988836;28;20505;-67
2022/04/20 05:12:51;;;;;;;28.25;10.20;;;;;;;;;;4983626;28;20485;-67
2022/04/20 05:15:18;;;;;;;28.77;10.32;;;;;;;;;;4976106;28;20040;-67
2022/04/20 05:17:46;;;;;;;24.48;10.20;;;;;;;;;;4986961;28;20384;-68
2022/04/20 05:20:13;;;;;;;30.83;11.07;;;;;;;;;;4985767;28;20037;-67
2022/04/20 05:22:43;;;;;;;25.30;10.93;;;;;;;;;;4988939;28;20027;-68
2022/04/20 05:25:10;;;;;;;27.77;11.35;;;;;;;;;;4986593;28;20387;-68
2022/04/20 05:27:36;;;;;;;33.58;13.32;;;;;;;;;;4981528;28;20026;-67
2022/04/20 05:30:09;;;;;;;34.25;10.82;;;;;;;;;;4988449;28;20031;-68
2022/04/20 05:32:36;;;;;;;28.48;11.43;;;;;;;;;;5006657;28;20045;-67
2022/04/20 05:35:07;;;;;;;35.95;11.45;;;;;;;;;;4988216;28;20502;-67
2022/04/20 05:43:05;;;;;;;28.02;11.20;;;;;;;;;;4998331;28;20411;-68
2022/04/20 05:45:31;;;;;;;34.47;12.35;;;;;;;;;;4982543;28;20051;-68
2022/04/20 05:48:12;;;;;;;32.55;13.75;;;;;;;;;;4980280;28;20022;-68
2022/04/20 05:50:39;;;;;;;29.83;12.70;;;;;;;;;;4982043;28;20023;-68
2022/04/20 05:53:06;;;;;;;34.92;14.05;;;;;;;;;;4985191;28;20026;-68
2022/04/20 05:55:32;;;;;;;34.72;14.88;;;;;;;;;;4973447;28;20153;-68
2022/04/20 05:57:59;;;;;;;40.55;16.15;;;;;;;;;;4985518;28;20026;-68
2022/04/20 06:00:25;;;;;;;37.35;15.00;;;;;;;;;;4987244;28;20043;-68
2022/04/20 06:03:17;;;;;;;39.42;17.15;;;;;;;;;;4928281;29;20036;-68
2022/04/20 06:05:45;;;;;;;44.95;16.17;;;;;;;;;;4925036;28;20583;-68
2022/04/20 06:08:32;;;;;;;35.17;15.35;;;;;;;;;;4941835;28;20127;-68
2022/04/20 06:11:18;;;;;;;50.45;17.02;;;;;;;;;;4933589;28;20043;-68
2022/04/20 06:13:45;;;;;;;32.15;16.83;;;;;;;;;;4912695;29;20040;-68
2022/04/20 06:16:30;;;;;;;34.38;16.17;;;;;;;;;;4924705;28;20056;-67
2022/04/20 06:19:07;;;;;;;39.03;16.38;;;;;;;;;;4911475;29;20604;-68
2022/04/20 06:21:50;;;;;;;38.58;16.63;;;;;;;;;;4906957;29;20040;-68
2022/04/20 06:24:20;;;;;;;42.80;18.63;;;;;;;;;;4926838;28;20455;-67
2022/04/20 06:26:51;;;;;;;41.45;17.92;;;;;;;;;;4913087;28;20036;-67
2022/04/20 06:29:36;;;;;;;48.83;16.55;;;;;;;;;;4919818;29;20078;-67
2022/04/20 06:32:28;;;;;;;39.75;18.17;;;;;;;;;;4979189;28;20472;-67
2022/04/20 06:35:13;;;;;;;49.50;19.38;;;;;;;;;;4981150;28;20108;-68
2022/04/20 06:37:58;;;;;;;47.90;17.75;;;;;;;;;;4983078;28;20126;-68
2022/04/20 06:40:46;;;;;;;48.00;19.23;;;;;;;;;;5026344;28;20073;-68
2022/04/20 06:43:35;;;;;;;48.92;19.67;;;;;;;;;;5038934;28;20037;-68
2022/04/20 06:46:17;;;;;;;36.17;17.92;;;;;;;;;;5040389;28;20045;-68
2022/04/20 06:48:58;;;;;;;44.22;18.58;;;;;;;;;;5042652;28;20039;-68
2022/04/20 07:00:20;;;;;;;42.47;16.77;;;;;;;;;;5023608;28;20048;-68
2022/04/20 07:03:22;;;;;;;40.65;17.13;;;;;;;;;;5002510;28;20038;-68
2022/04/20 07:06:20;;;;;;;33.25;16.25;;;;;;;;;;4991104;28;20038;-68
2022/04/20 07:08:58;;;;;;;48.95;18.75;;;;;;;;;;5009592;28;20576;-68
2022/04/20 07:11:31;;;;;;;42.22;17.50;;;;;;;;;;5053645;28;20086;-68
2022/04/20 07:13:57;;;;;;;43.40;16.15;;;;;;;;;;5048877;28;20033;-68
2022/04/20 07:16:24;;;;;;;38.60;16.45;;;;;;;;;;5050825;28;20028;-68
2022/04/20 07:19:07;;;;;;;40.40;16.95;;;;;;;;;;5050736;28;20040;-67
2022/04/20 07:22:03;;;;;;;37.22;17.55;;;;;;;;;;5036655;28;20033;-68
2022/04/20 07:24:44;;;;;;;39.55;17.58;;;;;;;;;;5015020;28;20665;-68
2022/04/20 07:27:37;;;;;;;39.17;16.20;;;;;;;;;;4998443;28;20025;-68
2022/04/20 07:30:23;;;;;;;40.45;17.77;;;;;;;;;;4974113;28;20567;-68
2022/04/20 07:33:08;;;;;;;45.10;16.88;;;;;;;;;;4973869;28;20524;-68
2022/04/20 07:35:46;;;;;;;41.47;17.10;;;;;;;;;;4955587;28;20057;-68
2022/04/20 07:38:42;;;;;;;46.90;17.52;;;;;;;;;;4866368;29;20037;-68
2022/04/20 07:41:28;;;;;;;45.90;17.42;;;;;;;;;;4897498;29;20033;-67
2022/04/20 07:44:13;;;;;;;38.50;16.35;;;;;;;;;;4898012;29;20077;-68
2022/04/20 07:46:54;;;;;;;37.40;16.23;;;;;;;;;;4904554;29;20137;-67
2022/04/20 07:52:45;;;;;;;43.13;14.65;;;;;;;;;;4898866;29;20139;-68
2022/04/20 07:55:46;;;;;;;32.85;15.20;;;;;;;;;;4893521;29;20124;-68
2022/04/20 07:58:21;;;;;;;50.25;17.50;;;;;;;;;;4879300;29;20527;-68
2022/04/20 08:01:12;;;;;;;39.50;15.23;;;;;;;;;;4897329;29;20040;-68
2022/04/20 08:04:01;;;;;;;43.97;16.10;;;;;;;;;;4872161;29;20041;-68
2022/04/20 08:06:46;;;;;;;33.13;15.75;;;;;;;;;;4871966;29;21429;-68
2022/04/20 08:09:12;;;;;;;34.20;15.85;;;;;;;;;;4911263;29;20375;-67
2022/04/20 08:11:39;;;;;;;30.85;15.82;;;;;;;;;;4894846;29;20036;-68
2022/04/20 08:14:11;;;;;;;38.67;16.45;;;;;;;;;;4902806;29;20111;-68
2022/04/20 08:16:50;;;;;;;31.38;15.88;;;;;;;;;;4933625;29;20054;-68
2022/04/20 08:19:37;;;;;;;27.75;14.70;;;;;;;;;;4977807;28;20042;-68
2022/04/20 08:22:09;;;;;;;38.33;17.30;;;;;;;;;;5006861;28;20065;-68
2022/04/20 08:24:36;;;;;;;36.65;15.57;;;;;;;;;;4998022;28;20089;-68
2022/04/20 08:27:02;;;;;;;31.63;15.63;;;;;;;;;;5005182;28;20104;-68
2022/04/20 08:29:28;;;;;;;30.85;15.80;;;;;;;;;;4984726;28;20025;-68
2022/04/20 08:31:54;;;;;;;34.47;16.65;;;;;;;;;;5006392;28;20064;-68
2022/04/20 08:34:20;;;;;;;37.85;16.10;;;;;;;;;;5005499;28;20628;-67
2022/04/20 08:36:47;;;;;;;29.85;15.52;;;;;;;;;;4999808;28;20034;-67
2022/04/20 08:39:13;;;;;;;33.05;15.73;;;;;;;;;;4999447;28;20030;-68
2022/04/20 08:41:40;;;;;;;42.42;16.02;;;;;;;;;;4985223;28;20072;-67
2022/04/20 08:44:08;;;;;;;30.80;14.57;;;;;;;;;;4978803;28;20026;-67
2022/04/20 08:46:36;;;;;;;38.08;15.43;;;;;;;;;;4982358;28;20137;-69
2022/04/20 08:49:02;;;;;;;33.53;13.85;;;;;;;;;;4989663;28;20045;-67
2022/04/20 08:52:37;;;;;;;35.05;14.10;;;;;;;;;;4980712;28;20022;-68
2022/04/20 08:54:15;;;;;;;30.85;14.35;;;;;;;;;;4977869;28;20395;-68
2022/04/20 08:59:26;;;;;;;29.55;13.60;;;;;;;;;;4983329;28;20041;-67
2022/04/20 09:01:52;;;;;;;24.42;13.57;;;;;;;;;;4984103;28;20491;-68
2022/04/20 09:04:18;;;;;;;28.85;13.63;;;;;;;;;;4981752;28;20121;-68
2022/04/20 09:06:45;;;;;;;31.58;15.10;;;;;;;;;;4979090;28;20112;-68
2022/04/20 09:09:11;;;;;;;26.67;14.57;;;;;;;;;;4977087;28;20022;-68
2022/04/20 09:11:38;;;;;;;28.40;14.57;;;;;;;;;;4975577;28;20033;-68
2022/04/20 09:14:13;;;;;;;30.10;14.43;;;;;;;;;;4973329;28;20076;-67
2022/04/20 09:16:41;;;;;;;30.85;15.70;;;;;;;;;;4983662;28;20046;-68
2022/04/20 09:19:07;;;;;;;25.92;13.68;;;;;;;;;;4981739;28;20022;-68
2022/04/20 09:21:36;;;;;;;29.42;13.27;;;;;;;;;;4978846;28;20026;-68
2022/04/20 09:24:06;;;;;;;25.92;14.05;;;;;;;;;;4975810;28;20031;-69
2022/04/20 09:26:32;;;;;;;31.23;13.38;;;;;;;;;;4977420;28;20035;-69
2022/04/20 09:29:06;;;;;;;30.55;13.75;;;;;;;;;;4976735;28;20466;-69
2022/04/20 09:31:45;;;;;;;24.63;12.25;;;;;;;;;;4981415;28;20059;-69
2022/04/20 09:34:32;;;;;;;32.00;12.55;;;;;;;;;;4983186;28;20114;-69
2022/04/20 09:36:58;;;;;;;26.02;12.93;;;;;;;;;;4977974;28;20042;-69
2022/04/20 09:39:30;;;;;;;32.70;13.48;;;;;;;;;;4981457;28;20430;-69
2022/04/20 09:42:01;;;;;;;30.90;12.75;;;;;;;;;;4977706;28;20065;-69
2022/04/20 09:44:28;;;;;;;33.28;12.45;;;;;;;;;;4983239;28;20031;-69
2022/04/20 09:49:58;;;;;;;26.08;10.48;;;;;;;;;;4974132;28;20035;-68
2022/04/20 09:52:25;;;;;;;28.83;11.00;;;;;;;;;;4973926;28;20526;-68
2022/04/20 09:54:55;;;;;;;24.33;10.85;;;;;;;;;;4971148;28;20484;-68
2022/04/20 09:57:21;;;;;;;26.33;10.82;;;;;;;;;;4972186;28;20428;-68
2022/04/20 09:59:57;;;;;;;29.33;10.32;;;;;;;;;;4979497;28;20031;-68
2022/04/20 10:02:23;;;;;;;23.38;10.63;;;;;;;;;;5018208;28;20117;-68
2022/04/20 10:04:51;;;;;;;24.92;10.82;;;;;;;;;;4980413;28;20023;-68
2022/04/20 10:07:17;;;;;;;26.48;10.82;;;;;;;;;;4977911;28;20033;-68
2022/04/20 10:09:43;;;;;;;31.50;12.23;;;;;;;;;;4978866;28;20037;-68
2022/04/20 10:12:11;;;;;;;28.42;12.43;;;;;;;;;;4975596;28;20114;-68
2022/04/20 10:17:25;;;;;;;22.38;10.63;;;;;;;;;;4976195;28;20054;-68
2022/04/20 10:19:52;;;;;;;20.20;10.73;;;;;;;;;;4982290;28;20074;-68
2022/04/20 10:22:19;;;;;;;29.67;11.32;;;;;;;;;;4980059;28;20125;-68
2022/04/20 10:24:46;;;;;;;26.02;10.95;;;;;;;;;;4977055;28;20404;-69
2022/04/20 10:27:35;;;;;;;24.90;11.23;;;;;;;;;;4977208;28;20031;-69
2022/04/20 10:30:07;;;;;;;29.60;10.63;;;;;;;;;;4992326;28;20039;-69
2022/04/20 10:32:58;;;;;;;27.33;10.45;;;;;;;;;;4978862;28;20121;-69
2022/04/20 10:35:25;;;;;;;29.15;12.05;;;;;;;;;;4983656;28;20065;-69
2022/04/20 10:38:12;;;;;;;26.77;10.90;;;;;;;;;;4975095;28;20408;-69
2022/04/20 10:41:05;;;;;;;24.10;9.45;;;;;;;;;;4980251;28;20077;-69
2022/04/20 10:43:38;;;;;;;29.75;10.85;;;;;;;;;;4980457;28;20031;-70
2022/04/20 10:46:05;;;;;;;26.60;10.55;;;;;;;;;;4980721;28;20045;-69
2022/04/20 10:48:50;;;;;;;21.83;9.57;;;;;;;;;;4980999;28;20371;-70
2022/04/20 10:51:42;;;;;;;22.20;9.38;;;;;;;;;;4984523;28;20030;-69
2022/04/20 10:54:21;;;;;;;23.73;9.55;;;;;;;;;;4976693;28;20046;-69
2022/04/20 10:57:10;;;;;;;24.98;10.05;;;;;;;;;;4985103;28;20058;-69
2022/04/20 10:59:36;;;;;;;20.58;9.85;;;;;;;;;;4975868;28;20072;-69
2022/04/20 11:02:02;;;;;;;22.17;10.02;;;;;;;;;;4976425;28;20022;-70
2022/04/20 11:04:42;;;;;;;28.63;10.43;;;;;;;;;;4978908;28;20544;-70
2022/04/20 11:07:08;;;;;;;21.88;11.20;;;;;;;;;;4980184;28;20075;-70
2022/04/20 11:09:48;;;;;;;29.80;11.07;;;;;;;;;;4973386;28;20149;-69
2022/04/20 11:20:48;;;;;;;;;;;;;;;;;;4979118;28;20073;-69
2022/04/20 11:23:19;;;;;;;29.45;11.90;;;;;;;;;;4977213;28;20383;-69
2022/04/20 11:25:45;;;;;;;26.35;11.77;;;;;;;;;;4974919;28;20841;-69
2022/04/20 11:28:11;;;;;;;27.38;12.00;;;;;;;;;;4977625;28;20504;-69
2022/04/20 11:30:37;;;;;;;31.52;13.23;;;;;;;;;;4974226;28;20530;-69
2022/04/20 11:33:04;;;;;;;21.08;11.13;;;;;;;;;;4977541;28;20029;-68
2022/04/20 11:35:31;;;;;;;32.08;12.63;;;;;;;;;;4982398;28;20084;-69
2022/04/20 11:37:57;;;;;;;30.48;12.75;;;;;;;;;;4980288;28;20045;-69
2022/04/20 11:40:24;;;;;;;31.75;12.68;;;;;;;;;;4978690;28;20476;-68
2022/04/20 11:43:05;;;;;;;29.27;12.23;;;;;;;;;;4973452;28;20069;-69
2022/04/20 11:45:32;;;;;;;30.83;12.48;;;;;;;;;;4972670;28;20073;-68
2022/04/20 11:48:01;;;;;;;22.88;12.02;;;;;;;;;;4982282;28;20159;-68
2022/04/20 11:50:39;;;;;;;27.88;12.80;;;;;;;;;;4974246;28;20030;-68
2022/04/20 11:53:06;;;;;;;31.10;12.65;;;;;;;;;;4970386;28;20073;-68
2022/04/20 11:55:58;;;;;;;29.52;11.45;;;;;;;;;;5042136;28;20033;-68
2022/04/20 11:58:25;;;;;;;32.50;12.98;;;;;;;;;;5042843;28;20033;-68
2022/04/20 12:01:07;;;;;;;33.92;14.35;;;;;;;;;;5042634;28;20043;-68
2022/04/20 12:03:36;;;;;;;30.40;15.48;;;;;;;;;;5040625;28;20041;-68
2022/04/20 12:06:04;;;;;;;27.55;14.57;;;;;;;;;;5042707;28;20017;-68
2022/04/20 12:08:31;;;;;;;25.27;14.05;;;;;;;;;;5037561;28;20063;-68
2022/04/20 12:10:57;;;;;;;35.88;14.32;;;;;;;;;;5042509;28;20066;-68
2022/04/20 12:13:28;;;;;;;32.72;13.95;;;;;;;;;;5040550;28;20064;-68
2022/04/20 12:16:01;;;;;;;35.97;16.52;;;;;;;;;;5041503;28;20112;-68
2022/04/20 12:18:29;;;;;;;30.65;14.82;;;;;;;;;;5037593;28;20029;-68
2022/04/20 12:20:57;;;;;;;30.30;14.23;;;;;;;;;;5039143;28;20041;-68
2022/04/20 12:23:24;;;;;;;37.70;14.23;;;;;;;;;;5040025;28;20376;-68
2022/04/20 12:25:52;;;;;;;30.23;14.95;;;;;;;;;;5038067;28;20029;-68
2022/04/20 12:28:36;;;;;;;28.98;14.82;;;;;;;;;;5040411;28;20037;-68
2022/04/20 12:31:03;;;;;;;36.90;16.50;;;;;;;;;;5041605;28;20518;-68
2022/04/20 12:33:30;;;;;;;34.90;16.75;;;;;;;;;;4987093;28;20077;-69
2022/04/20 12:36:09;;;;;;;41.72;16.00;;;;;;;;;;4979486;28;21041;-68
2022/04/20 12:38:46;;;;;;;36.72;16.75;;;;;;;;;;4975946;28;20037;-68
2022/04/20 12:41:31;;;;;;;31.85;15.93;;;;;;;;;;4970014;28;20026;-68
2022/04/20 12:43:57;;;;;;;29.65;15.55;;;;;;;;;;4969783;28;20084;-68
2022/04/20 12:46:33;;;;;;;39.13;16.90;;;;;;;;;;4980431;28;20026;-68
2022/04/20 12:48:59;;;;;;;33.53;17.02;;;;;;;;;;4971108;28;20499;-68
2022/04/20 12:51:26;;;;;;;38.90;16.70;;;;;;;;;;4970090;28;20504;-68
2022/04/20 12:53:52;;;;;;;38.78;15.82;;;;;;;;;;4974552;28;20106;-68
2022/04/20 13:02:02;;;;;;;39.33;17.80;;;;;;;;;;4969801;28;20061;-68
2022/04/20 13:04:29;;;;;;;40.78;20.23;;;;;;;;;;4969683;28;20427;-68
2022/04/20 13:06:55;;;;;;;34.42;17.15;;;;;;;;;;4970773;28;20027;-68
2022/04/20 13:09:22;;;;;;;34.65;16.92;;;;;;;;;;4969381;28;20065;-68
2022/04/20 13:11:48;;;;;;;39.78;18.45;;;;;;;;;;4967966;28;20026;-68
2022/04/20 13:14:14;;;;;;;36.22;17.27;;;;;;;;;;4971412;28;20022;-69
2022/04/20 13:16:40;;;;;;;36.42;17.55;;;;;;;;;;4974668;28;20465;-69
2022/04/20 13:19:07;;;;;;;44.17;18.90;;;;;;;;;;4975281;28;20490;-69
2022/04/20 13:21:33;;;;;;;34.90;18.77;;;;;;;;;;4976841;28;20034;-68
2022/04/20 13:24:00;;;;;;;35.42;18.60;;;;;;;;;;4977928;28;20038;-69
2022/04/20 13:29:12;;;;;;;42.60;17.75;;;;;;;;;;4975157;28;20484;-69
2022/04/20 13:31:38;;;;;;;40.92;18.13;;;;;;;;;;4972829;28;20015;-68
2022/04/20 13:34:04;;;;;;;33.85;17.88;;;;;;;;;;4979734;28;20065;-68
2022/04/20 13:36:30;;;;;;;39.35;18.30;;;;;;;;;;4992817;28;20056;-69
2022/04/20 13:38:57;;;;;;;38.00;19.20;;;;;;;;;;4989027;28;20034;-67
2022/04/20 13:41:23;;;;;;;34.13;18.40;;;;;;;;;;4985301;28;20072;-68
2022/04/20 13:43:49;;;;;;;35.00;19.63;;;;;;;;;;4977431;28;20114;-68
2022/04/20 13:46:16;;;;;;;37.38;18.90;;;;;;;;;;4981054;28;20045;-69
2022/04/20 13:48:43;;;;;;;40.85;19.10;;;;;;;;;;4980697;28;20065;-66
2022/04/20 13:51:09;;;;;;;39.22;19.13;;;;;;;;;;4982987;28;20030;-65
2022/04/20 13:53:35;;;;;;;35.22;17.63;;;;;;;;;;4977829;28;20073;-67
2022/04/20 13:56:03;;;;;;;40.45;19.98;;;;;;;;;;4977487;28;20050;-73
2022/04/20 13:58:31;;;;;;;38.05;19.10;;;;;;;;;;4987499;28;20380;-68
2022/04/20 14:00:57;;;;;;;38.92;18.50;;;;;;;;;;4977471;28;20034;-69
2022/04/20 14:03:25;;;;;;;38.92;19.05;;;;;;;;;;4978405;28;20062;-72
2022/04/20 14:05:51;;;;;;;39.63;19.35;;;;;;;;;;4979576;28;20019;-67
2022/04/20 14:08:17;;;;;;;38.65;20.77;;;;;;;;;;4980088;28;20675;-72
2022/04/20 14:10:44;;;;;;;41.30;20.95;;;;;;;;;;4974237;28;20069;-67
2022/04/20 14:13:10;;;;;;;50.42;21.52;;;;;;;;;;4980084;28;20031;-67
2022/04/20 14:15:36;;;;;;;42.50;22.55;;;;;;;;;;4985060;28;20114;-66
2022/04/20 14:18:03;;;;;;;40.92;21.05;;;;;;;;;;4977439;28;20031;-69
2022/04/20 14:20:29;;;;;;;43.90;20.80;;;;;;;;;;4973024;28;20037;-66
2022/04/20 14:22:55;;;;;;;44.50;21.42;;;;;;;;;;4985871;28;20446;-64
2022/04/20 14:33:50;;;;;;;40.13;20.88;;;;;;;;;;4981679;28;20034;-64
2022/04/20 14:36:16;;;;;;;42.50;21.35;;;;;;;;;;4979398;28;20516;-63
2022/04/20 14:38:42;;;;;;;42.13;21.20;;;;;;;;;;4981348;28;20034;-65
2022/04/20 14:41:08;;;;;;;49.20;21.73;;;;;;;;;;4977327;28;20027;-68
2022/04/20 14:43:35;;;;;;;44.50;22.58;;;;;;;;;;4981153;28;20381;-62
2022/04/20 14:46:01;;;;;;;46.70;21.75;;;;;;;;;;4978381;28;20094;-66
2022/04/20 14:48:27;;;;;;;52.35;23.30;;;;;;;;;;4976586;28;20110;-65
2022/04/20 14:50:53;;;;;;;44.85;21.27;;;;;;;;;;4980800;28;20037;-66
2022/04/20 14:53:19;;;;;;;52.35;23.85;;;;;;;;;;4984444;28;20113;-69
2022/04/20 14:55:46;;;;;;;46.85;24.38;;;;;;;;;;4975452;28;20527;-66
2022/04/20 14:58:12;;;;;;;49.15;22.92;;;;;;;;;;4979299;28;20027;-65
2022/04/20 15:00:41;;;;;;;43.25;21.67;;;;;;;;;;4977198;28;20054;-65
2022/04/20 15:03:07;;;;;;;46.88;21.92;;;;;;;;;;4981383;28;20030;-73
2022/04/20 15:05:34;;;;;;;48.85;23.02;;;;;;;;;;4979900;28;20018;-68
2022/04/20 15:08:00;;;;;;;49.38;25.10;;;;;;;;;;4986251;28;20026;-69
2022/04/20 15:10:26;;;;;;;46.10;24.15;;;;;;;;;;4975940;28;20030;-68
2022/04/20 15:12:55;;;;;;;52.25;26.27;;;;;;;;;;4981235;28;20148;-66
2022/04/20 15:15:21;;;;;;;60.63;25.92;;;;;;;;;;4974648;28;20069;-69
2022/04/20 15:17:48;;;;;;;52.25;24.33;;;;;;;;;;4977289;28;20043;-62
2022/04/20 15:20:14;;;;;;;57.03;26.38;;;;;;;;;;4978499;28;20109;-64
2022/04/20 15:22:42;;;;;;;62.22;26.95;;;;;;;;;;4981232;28;20034;-66
2022/04/20 15:25:08;;;;;;;58.35;26.63;;;;;;;;;;4990893;28;20046;-66
2022/04/20 15:27:35;;;;;;;53.30;27.02;;;;;;;;;;4976301;28;20503;-65
2022/04/20 15:30:01;;;;;;;59.65;28.02;;;;;;;;;;4974074;28;20072;-65
2022/04/20 15:32:27;;;;;;;52.10;26.63;;;;;;;;;;4981389;28;20399;-65
2022/04/20 15:34:53;;;;;;;53.33;27.38;;;;;;;;;;4978362;28;20117;-65
2022/04/20 15:37:19;;;;;;;45.78;25.17;;;;;;;;;;4984233;28;20462;-65
2022/04/20 15:39:47;;;;;;;55.75;26.88;;;;;;;;;;5000705;28;20026;-66
2022/04/20 15:42:13;;;;;;;52.28;26.35;;;;;;;;;;4981396;28;20491;-66
2022/04/20 15:44:39;;;;;;;56.58;27.15;;;;;;;;;;4981096;28;20101;-66